sensor_id;sensor_type;location;lat;lon;timestamp;P1;P2;P0
47810;PMS5003;33575;52.600;7.318;2023-07-29T00:00:53;13;13;
47810;PMS5003;33575;52.600;7.318;2023-07-29T00:03:23;13;12;
47810;PMS5003;33575;52.600;7.318;2023-07-29T00:05:54;12;12;
47810;PMS5003;33575;52.600;7.318;2023-07-29T00:08:24;16;16;
47810;PMS5003;33575;52.600;7.318;2023-07-29T00:10:55;12;11;
47810;PMS5003;33575;52.600;7.318;2023-07-29T00:13:25;13;12;
47810;PMS5003;33575;52.600;7.318;2023-07-29T00:15:55;13;11;
47810;PMS5003;33575;52.600;7.318;2023-07-29T00:18:26;9;9;
47810;PMS5003;33575;52.600;7.318;2023-07-29T00:20:56;11;11;
47810;PMS5003;33575;52.600;7.318;2023-07-29T00:23:26;13;11;
47810;PMS5003;33575;52.600;7.318;2023-07-29T00:25:57;11;11;
47810;PMS5003;33575;52.600;7.318;2023-07-29T00:28:27;17;15;
47810;PMS5003;33575;52.600;7.318;2023-07-29T00:30:58;11;10;
47810;PMS5003;33575;52.600;7.318;2023-07-29T00:33:28;14;13;
47810;PMS5003;33575;52.600;7.318;2023-07-29T00:35:59;19;18;
47810;PMS5003;33575;52.600;7.318;2023-07-29T00:38:29;13;12;
47810;PMS5003;33575;52.600;7.318;2023-07-29T00:41:00;16;16;
47810;PMS5003;33575;52.600;7.318;2023-07-29T00:43:30;19;18;
47810;PMS5003;33575;52.600;7.318;2023-07-29T00:46:01;14;13;
47810;PMS5003;33575;52.600;7.318;2023-07-29T00:48:32;16;16;
47810;PMS5003;33575;52.600;7.318;2023-07-29T00:51:02;14;14;
47810;PMS5003;33575;52.600;7.318;2023-07-29T00:53:32;15;15;
47810;PMS5003;33575;52.600;7.318;2023-07-29T00:56:03;16;13;
47810;PMS5003;33575;52.600;7.318;2023-07-29T00:58:33;16;15;
47810;PMS5003;33575;52.600;7.318;2023-07-29T01:01:04;16;16;
47810;PMS5003;33575;52.600;7.318;2023-07-29T01:03:35;16;15;
47810;PMS5003;33575;52.600;7.318;2023-07-29T01:06:09;17;16;
47810;PMS5003;33575;52.600;7.318;2023-07-29T01:08:38;17;15;
47810;PMS5003;33575;52.600;7.318;2023-07-29T01:11:08;13;13;
47810;PMS5003;33575;52.600;7.318;2023-07-29T01:13:37;16;14;
47810;PMS5003;33575;52.600;7.318;2023-07-29T01:16:08;15;14;
47810;PMS5003;33575;52.600;7.318;2023-07-29T01:18:38;13;13;
47810;PMS5003;33575;52.600;7.318;2023-07-29T01:21:08;15;15;
47810;PMS5003;33575;52.600;7.318;2023-07-29T01:23:39;15;15;
47810;PMS5003;33575;52.600;7.318;2023-07-29T01:26:09;14;14;
47810;PMS5003;33575;52.600;7.318;2023-07-29T01:28:40;19;16;
47810;PMS5003;33575;52.600;7.318;2023-07-29T01:31:12;19;18;
47810;PMS5003;33575;52.600;7.318;2023-07-29T01:33:42;20;17;
47810;PMS5003;33575;52.600;7.318;2023-07-29T01:36:13;18;17;
47810;PMS5003;33575;52.600;7.318;2023-07-29T01:38:42;18;17;
47810;PMS5003;33575;52.600;7.318;2023-07-29T01:41:13;18;17;
47810;PMS5003;33575;52.600;7.318;2023-07-29T01:43:44;20;18;
47810;PMS5003;33575;52.600;7.318;2023-07-29T01:46:14;17;17;
47810;PMS5003;33575;52.600;7.318;2023-07-29T01:48:45;25;25;
47810;PMS5003;33575;52.600;7.318;2023-07-29T01:51:15;16;15;
47810;PMS5003;33575;52.600;7.318;2023-07-29T01:53:46;15;15;
47810;PMS5003;33575;52.600;7.318;2023-07-29T01:56:17;36;34;
47810;PMS5003;33575;52.600;7.318;2023-07-29T01:58:47;19;18;
47810;PMS5003;33575;52.600;7.318;2023-07-29T02:01:18;17;17;
47810;PMS5003;33575;52.600;7.318;2023-07-29T02:03:49;20;17;
47810;PMS5003;33575;52.600;7.318;2023-07-29T02:06:19;18;17;
47810;PMS5003;33575;52.600;7.318;2023-07-29T02:08:50;17;16;
47810;PMS5003;33575;52.600;7.318;2023-07-29T02:11:20;17;16;
47810;PMS5003;33575;52.600;7.318;2023-07-29T02:13:51;16;16;
47810;PMS5003;33575;52.600;7.318;2023-07-29T02:16:22;17;15;
47810;PMS5003;33575;52.600;7.318;2023-07-29T02:18:55;15;15;
47810;PMS5003;33575;52.600;7.318;2023-07-29T02:21:22;18;18;
47810;PMS5003;33575;52.600;7.318;2023-07-29T02:23:53;14;14;
47810;PMS5003;33575;52.600;7.318;2023-07-29T02:26:23;19;19;
47810;PMS5003;33575;52.600;7.318;2023-07-29T02:28:54;14;14;
47810;PMS5003;33575;52.600;7.318;2023-07-29T02:31:24;16;16;
47810;PMS5003;33575;52.600;7.318;2023-07-29T02:33:55;15;14;
47810;PMS5003;33575;52.600;7.318;2023-07-29T02:36:25;16;16;
47810;PMS5003;33575;52.600;7.318;2023-07-29T02:38:55;17;17;
47810;PMS5003;33575;52.600;7.318;2023-07-29T02:41:25;14;14;
47810;PMS5003;33575;52.600;7.318;2023-07-29T02:43:55;17;17;
47810;PMS5003;33575;52.600;7.318;2023-07-29T02:46:26;18;17;
47810;PMS5003;33575;52.600;7.318;2023-07-29T02:48:56;17;16;
47810;PMS5003;33575;52.600;7.318;2023-07-29T02:51:27;16;16;
47810;PMS5003;33575;52.600;7.318;2023-07-29T02:53:58;16;15;
47810;PMS5003;33575;52.600;7.318;2023-07-29T02:56:28;16;16;
47810;PMS5003;33575;52.600;7.318;2023-07-29T02:58:59;16;14;
47810;PMS5003;33575;52.600;7.318;2023-07-29T03:01:29;15;14;
47810;PMS5003;33575;52.600;7.318;2023-07-29T03:04:00;16;15;
47810;PMS5003;33575;52.600;7.318;2023-07-29T03:06:30;14;14;
47810;PMS5003;33575;52.600;7.318;2023-07-29T03:09:00;15;12;
47810;PMS5003;33575;52.600;7.318;2023-07-29T03:11:30;15;14;
47810;PMS5003;33575;52.600;7.318;2023-07-29T03:14:00;14;13;
47810;PMS5003;33575;52.600;7.318;2023-07-29T03:16:31;14;14;
47810;PMS5003;33575;52.600;7.318;2023-07-29T03:19:01;15;15;
47810;PMS5003;33575;52.600;7.318;2023-07-29T03:21:31;15;14;
47810;PMS5003;33575;52.600;7.318;2023-07-29T03:24:02;17;16;
47810;PMS5003;33575;52.600;7.318;2023-07-29T03:26:33;15;15;
47810;PMS5003;33575;52.600;7.318;2023-07-29T03:29:03;16;15;
47810;PMS5003;33575;52.600;7.318;2023-07-29T03:31:33;11;11;
47810;PMS5003;33575;52.600;7.318;2023-07-29T03:34:04;15;15;
47810;PMS5003;33575;52.600;7.318;2023-07-29T03:36:36;17;17;
47810;PMS5003;33575;52.600;7.318;2023-07-29T03:39:05;18;16;
47810;PMS5003;33575;52.600;7.318;2023-07-29T03:41:35;16;14;
47810;PMS5003;33575;52.600;7.318;2023-07-29T03:44:05;14;13;
47810;PMS5003;33575;52.600;7.318;2023-07-29T03:46:36;14;14;
47810;PMS5003;33575;52.600;7.318;2023-07-29T03:49:06;19;18;
47810;PMS5003;33575;52.600;7.318;2023-07-29T03:51:37;18;16;
47810;PMS5003;33575;52.600;7.318;2023-07-29T03:54:07;15;15;
47810;PMS5003;33575;52.600;7.318;2023-07-29T03:56:38;15;15;
47810;PMS5003;33575;52.600;7.318;2023-07-29T03:59:07;15;15;
47810;PMS5003;33575;52.600;7.318;2023-07-29T04:01:38;18;18;
47810;PMS5003;33575;52.600;7.318;2023-07-29T04:04:09;18;17;
47810;PMS5003;33575;52.600;7.318;2023-07-29T04:06:40;19;19;
47810;PMS5003;33575;52.600;7.318;2023-07-29T04:09:10;14;14;
47810;PMS5003;33575;52.600;7.318;2023-07-29T04:11:41;17;17;
47810;PMS5003;33575;52.600;7.318;2023-07-29T04:14:11;15;15;
47810;PMS5003;33575;52.600;7.318;2023-07-29T04:16:42;19;17;
47810;PMS5003;33575;52.600;7.318;2023-07-29T04:19:13;17;17;
47810;PMS5003;33575;52.600;7.318;2023-07-29T04:21:43;16;14;
47810;PMS5003;33575;52.600;7.318;2023-07-29T04:24:14;14;13;
47810;PMS5003;33575;52.600;7.318;2023-07-29T04:26:44;16;15;
47810;PMS5003;33575;52.600;7.318;2023-07-29T04:29:16;14;13;
47810;PMS5003;33575;52.600;7.318;2023-07-29T04:31:45;13;12;
47810;PMS5003;33575;52.600;7.318;2023-07-29T04:34:16;15;15;
47810;PMS5003;33575;52.600;7.318;2023-07-29T04:36:46;16;16;
47810;PMS5003;33575;52.600;7.318;2023-07-29T04:39:17;14;13;
47810;PMS5003;33575;52.600;7.318;2023-07-29T04:41:48;11;11;
47810;PMS5003;33575;52.600;7.318;2023-07-29T04:44:19;17;15;
47810;PMS5003;33575;52.600;7.318;2023-07-29T04:46:49;12;11;
47810;PMS5003;33575;52.600;7.318;2023-07-29T04:49:20;12;11;
47810;PMS5003;33575;52.600;7.318;2023-07-29T04:51:50;14;14;
47810;PMS5003;33575;52.600;7.318;2023-07-29T04:54:20;15;13;
47810;PMS5003;33575;52.600;7.318;2023-07-29T04:56:51;13;12;
47810;PMS5003;33575;52.600;7.318;2023-07-29T04:59:21;14;13;
47810;PMS5003;33575;52.600;7.318;2023-07-29T05:01:55;12;12;
47810;PMS5003;33575;52.600;7.318;2023-07-29T05:04:21;12;12;
47810;PMS5003;33575;52.600;7.318;2023-07-29T05:06:52;14;12;
47810;PMS5003;33575;52.600;7.318;2023-07-29T05:09:23;16;15;
47810;PMS5003;33575;52.600;7.318;2023-07-29T05:11:53;14;14;
47810;PMS5003;33575;52.600;7.318;2023-07-29T05:14:24;15;14;
47810;PMS5003;33575;52.600;7.318;2023-07-29T05:16:54;13;13;
47810;PMS5003;33575;52.600;7.318;2023-07-29T05:19:25;15;13;
47810;PMS5003;33575;52.600;7.318;2023-07-29T05:21:55;13;11;
47810;PMS5003;33575;52.600;7.318;2023-07-29T05:24:26;16;15;
47810;PMS5003;33575;52.600;7.318;2023-07-29T05:26:56;15;13;
47810;PMS5003;33575;52.600;7.318;2023-07-29T05:29:27;14;13;
47810;PMS5003;33575;52.600;7.318;2023-07-29T05:31:57;15;14;
47810;PMS5003;33575;52.600;7.318;2023-07-29T05:34:28;15;15;
47810;PMS5003;33575;52.600;7.318;2023-07-29T05:36:58;13;13;
47810;PMS5003;33575;52.600;7.318;2023-07-29T05:39:29;18;16;
47810;PMS5003;33575;52.600;7.318;2023-07-29T05:41:59;17;15;
47810;PMS5003;33575;52.600;7.318;2023-07-29T05:44:29;16;16;
47810;PMS5003;33575;52.600;7.318;2023-07-29T05:47:00;20;18;
47810;PMS5003;33575;52.600;7.318;2023-07-29T05:49:30;14;14;
47810;PMS5003;33575;52.600;7.318;2023-07-29T05:52:00;19;18;
47810;PMS5003;33575;52.600;7.318;2023-07-29T05:54:31;15;13;
47810;PMS5003;33575;52.600;7.318;2023-07-29T05:57:01;18;18;
47810;PMS5003;33575;52.600;7.318;2023-07-29T05:59:32;18;15;
47810;PMS5003;33575;52.600;7.318;2023-07-29T06:02:03;15;14;
47810;PMS5003;33575;52.600;7.318;2023-07-29T06:04:32;15;15;
47810;PMS5003;33575;52.600;7.318;2023-07-29T06:07:03;17;16;
47810;PMS5003;33575;52.600;7.318;2023-07-29T06:09:33;21;20;
47810;PMS5003;33575;52.600;7.318;2023-07-29T06:12:04;14;13;
47810;PMS5003;33575;52.600;7.318;2023-07-29T06:14:34;14;14;
47810;PMS5003;33575;52.600;7.318;2023-07-29T06:17:05;14;14;
47810;PMS5003;33575;52.600;7.318;2023-07-29T06:19:35;15;15;
47810;PMS5003;33575;52.600;7.318;2023-07-29T06:22:05;16;14;
47810;PMS5003;33575;52.600;7.318;2023-07-29T06:24:36;14;14;
47810;PMS5003;33575;52.600;7.318;2023-07-29T06:27:06;13;13;
47810;PMS5003;33575;52.600;7.318;2023-07-29T06:29:37;16;16;
47810;PMS5003;33575;52.600;7.318;2023-07-29T06:32:07;12;11;
47810;PMS5003;33575;52.600;7.318;2023-07-29T06:34:37;14;13;
47810;PMS5003;33575;52.600;7.318;2023-07-29T06:37:08;14;14;
47810;PMS5003;33575;52.600;7.318;2023-07-29T06:39:37;13;12;
47810;PMS5003;33575;52.600;7.318;2023-07-29T06:42:08;13;13;
47810;PMS5003;33575;52.600;7.318;2023-07-29T06:44:39;13;12;
47810;PMS5003;33575;52.600;7.318;2023-07-29T06:47:09;13;13;
47810;PMS5003;33575;52.600;7.318;2023-07-29T06:49:39;14;14;
47810;PMS5003;33575;52.600;7.318;2023-07-29T06:52:10;18;18;
47810;PMS5003;33575;52.600;7.318;2023-07-29T06:54:40;18;16;
47810;PMS5003;33575;52.600;7.318;2023-07-29T06:57:10;13;12;
47810;PMS5003;33575;52.600;7.318;2023-07-29T06:59:40;14;12;
47810;PMS5003;33575;52.600;7.318;2023-07-29T07:02:10;12;11;
47810;PMS5003;33575;52.600;7.318;2023-07-29T07:04:41;13;11;
47810;PMS5003;33575;52.600;7.318;2023-07-29T07:07:11;10;10;
47810;PMS5003;33575;52.600;7.318;2023-07-29T07:09:41;11;11;
47810;PMS5003;33575;52.600;7.318;2023-07-29T07:12:11;13;12;
47810;PMS5003;33575;52.600;7.318;2023-07-29T07:14:42;13;13;
47810;PMS5003;33575;52.600;7.318;2023-07-29T07:17:14;12;11;
47810;PMS5003;33575;52.600;7.318;2023-07-29T07:19:42;12;10;
47810;PMS5003;33575;52.600;7.318;2023-07-29T07:22:13;14;12;
47810;PMS5003;33575;52.600;7.318;2023-07-29T07:24:44;11;11;
47810;PMS5003;33575;52.600;7.318;2023-07-29T07:27:14;14;13;
47810;PMS5003;33575;52.600;7.318;2023-07-29T07:29:44;13;13;
47810;PMS5003;33575;52.600;7.318;2023-07-29T07:32:14;13;11;
47810;PMS5003;33575;52.600;7.318;2023-07-29T07:34:44;13;13;
47810;PMS5003;33575;52.600;7.318;2023-07-29T07:37:15;10;9;
47810;PMS5003;33575;52.600;7.318;2023-07-29T07:39:46;13;12;
47810;PMS5003;33575;52.600;7.318;2023-07-29T07:42:16;12;11;
47810;PMS5003;33575;52.600;7.318;2023-07-29T07:44:46;11;11;
47810;PMS5003;33575;52.600;7.318;2023-07-29T07:47:16;14;14;
47810;PMS5003;33575;52.600;7.318;2023-07-29T07:49:47;13;12;
47810;PMS5003;33575;52.600;7.318;2023-07-29T07:52:18;16;16;
47810;PMS5003;33575;52.600;7.318;2023-07-29T07:54:51;14;14;
47810;PMS5003;33575;52.600;7.318;2023-07-29T07:57:19;17;16;
47810;PMS5003;33575;52.600;7.318;2023-07-29T07:59:48;17;16;
47810;PMS5003;33575;52.600;7.318;2023-07-29T08:02:19;16;14;
47810;PMS5003;33575;52.600;7.318;2023-07-29T08:04:49;17;16;
47810;PMS5003;33575;52.600;7.318;2023-07-29T08:07:20;20;20;
47810;PMS5003;33575;52.600;7.318;2023-07-29T08:09:50;15;15;
47810;PMS5003;33575;52.600;7.318;2023-07-29T08:12:21;14;14;
47810;PMS5003;33575;52.600;7.318;2023-07-29T08:14:51;16;15;
47810;PMS5003;33575;52.600;7.318;2023-07-29T08:17:22;17;16;
47810;PMS5003;33575;52.600;7.318;2023-07-29T08:19:52;18;18;
47810;PMS5003;33575;52.600;7.318;2023-07-29T08:22:22;17;16;
47810;PMS5003;33575;52.600;7.318;2023-07-29T08:24:53;16;16;
47810;PMS5003;33575;52.600;7.318;2023-07-29T08:27:24;13;12;
47810;PMS5003;33575;52.600;7.318;2023-07-29T08:29:55;13;13;
47810;PMS5003;33575;52.600;7.318;2023-07-29T08:32:25;12;12;
47810;PMS5003;33575;52.600;7.318;2023-07-29T08:34:55;16;16;
47810;PMS5003;33575;52.600;7.318;2023-07-29T08:37:25;15;15;
47810;PMS5003;33575;52.600;7.318;2023-07-29T08:39:56;16;14;
47810;PMS5003;33575;52.600;7.318;2023-07-29T08:42:27;15;14;
47810;PMS5003;33575;52.600;7.318;2023-07-29T08:44:56;14;14;
47810;PMS5003;33575;52.600;7.318;2023-07-29T08:47:26;15;13;
47810;PMS5003;33575;52.600;7.318;2023-07-29T08:49:57;13;13;
47810;PMS5003;33575;52.600;7.318;2023-07-29T08:52:27;14;13;
47810;PMS5003;33575;52.600;7.318;2023-07-29T08:54:58;17;16;
47810;PMS5003;33575;52.600;7.318;2023-07-29T08:57:27;14;11;
47810;PMS5003;33575;52.600;7.318;2023-07-29T08:59:58;13;13;
47810;PMS5003;33575;52.600;7.318;2023-07-29T09:02:28;15;15;
47810;PMS5003;33575;52.600;7.318;2023-07-29T09:04:58;11;11;
47810;PMS5003;33575;52.600;7.318;2023-07-29T09:07:28;14;14;
47810;PMS5003;33575;52.600;7.318;2023-07-29T09:09:59;15;14;
47810;PMS5003;33575;52.600;7.318;2023-07-29T09:12:29;11;10;
47810;PMS5003;33575;52.600;7.318;2023-07-29T09:14:59;10;9;
47810;PMS5003;33575;52.600;7.318;2023-07-29T09:17:30;9;9;
47810;PMS5003;33575;52.600;7.318;2023-07-29T09:20:00;10;9;
47810;PMS5003;33575;52.600;7.318;2023-07-29T09:22:30;11;10;
47810;PMS5003;33575;52.600;7.318;2023-07-29T09:25:00;9;9;
47810;PMS5003;33575;52.600;7.318;2023-07-29T09:27:30;7;6;
47810;PMS5003;33575;52.600;7.318;2023-07-29T09:30:01;8;8;
47810;PMS5003;33575;52.600;7.318;2023-07-29T09:32:31;8;8;
47810;PMS5003;33575;52.600;7.318;2023-07-29T09:35:01;9;8;
47810;PMS5003;33575;52.600;7.318;2023-07-29T09:37:31;10;8;
47810;PMS5003;33575;52.600;7.318;2023-07-29T09:40:01;9;8;
47810;PMS5003;33575;52.600;7.318;2023-07-29T09:42:32;7;7;
47810;PMS5003;33575;52.600;7.318;2023-07-29T09:45:02;6;6;
47810;PMS5003;33575;52.600;7.318;2023-07-29T09:47:32;13;13;
47810;PMS5003;33575;52.600;7.318;2023-07-29T09:50:03;11;10;
47810;PMS5003;33575;52.600;7.318;2023-07-29T09:52:33;13;13;
47810;PMS5003;33575;52.600;7.318;2023-07-29T09:55:04;9;8;
47810;PMS5003;33575;52.600;7.318;2023-07-29T09:57:34;10;10;
47810;PMS5003;33575;52.600;7.318;2023-07-29T10:00:05;7;7;
47810;PMS5003;33575;52.600;7.318;2023-07-29T10:02:35;7;7;
47810;PMS5003;33575;52.600;7.318;2023-07-29T10:05:05;5;5;
47810;PMS5003;33575;52.600;7.318;2023-07-29T10:07:35;5;5;
47810;PMS5003;33575;52.600;7.318;2023-07-29T10:10:06;17;17;
47810;PMS5003;33575;52.600;7.318;2023-07-29T10:12:36;17;17;
47810;PMS5003;33575;52.600;7.318;2023-07-29T10:15:07;46;46;
47810;PMS5003;33575;52.600;7.318;2023-07-29T10:17:37;20;20;
47810;PMS5003;33575;52.600;7.318;2023-07-29T10:20:08;38;38;
47810;PMS5003;33575;52.600;7.318;2023-07-29T10:22:38;7;7;
47810;PMS5003;33575;52.600;7.318;2023-07-29T10:25:09;8;6;
47810;PMS5003;33575;52.600;7.318;2023-07-29T10:27:42;54;54;
47810;PMS5003;33575;52.600;7.318;2023-07-29T10:30:10;65;65;
47810;PMS5003;33575;52.600;7.318;2023-07-29T10:32:41;51;51;
47810;PMS5003;33575;52.600;7.318;2023-07-29T10:35:09;36;36;
47810;PMS5003;33575;52.600;7.318;2023-07-29T10:37:39;40;39;
47810;PMS5003;33575;52.600;7.318;2023-07-29T10:40:10;34;34;
47810;PMS5003;33575;52.600;7.318;2023-07-29T10:42:58;35;35;
47810;PMS5003;33575;52.600;7.318;2023-07-29T10:47:42;28;28;
47810;PMS5003;33575;52.600;7.318;2023-07-29T10:50:17;19;19;
47810;PMS5003;33575;52.600;7.318;2023-07-29T10:52:43;25;25;
47810;PMS5003;33575;52.600;7.318;2023-07-29T10:57:43;24;24;
47810;PMS5003;33575;52.600;7.318;2023-07-29T11:00:15;14;14;
47810;PMS5003;33575;52.600;7.318;2023-07-29T11:02:46;25;25;
47810;PMS5003;33575;52.600;7.318;2023-07-29T11:05:15;25;25;
47810;PMS5003;33575;52.600;7.318;2023-07-29T11:07:45;25;24;
47810;PMS5003;33575;52.600;7.318;2023-07-29T11:10:15;22;22;
47810;PMS5003;33575;52.600;7.318;2023-07-29T11:12:46;20;18;
47810;PMS5003;33575;52.600;7.318;2023-07-29T11:15:19;21;21;
47810;PMS5003;33575;52.600;7.318;2023-07-29T11:17:47;36;36;
47810;PMS5003;33575;52.600;7.318;2023-07-29T11:20:18;15;15;
47810;PMS5003;33575;52.600;7.318;2023-07-29T11:22:48;14;13;
47810;PMS5003;33575;52.600;7.318;2023-07-29T11:25:18;18;18;
47810;PMS5003;33575;52.600;7.318;2023-07-29T11:27:48;14;14;
47810;PMS5003;33575;52.600;7.318;2023-07-29T11:30:18;22;22;
47810;PMS5003;33575;52.600;7.318;2023-07-29T11:32:49;28;27;
47810;PMS5003;33575;52.600;7.318;2023-07-29T11:35:19;20;19;
47810;PMS5003;33575;52.600;7.318;2023-07-29T11:37:50;20;18;
47810;PMS5003;33575;52.600;7.318;2023-07-29T11:40:20;13;13;
47810;PMS5003;33575;52.600;7.318;2023-07-29T11:42:50;12;12;
47810;PMS5003;33575;52.600;7.318;2023-07-29T11:45:21;37;37;
47810;PMS5003;33575;52.600;7.318;2023-07-29T11:47:50;11;11;
47810;PMS5003;33575;52.600;7.318;2023-07-29T11:50:20;8;8;
47810;PMS5003;33575;52.600;7.318;2023-07-29T11:52:51;9;8;
47810;PMS5003;33575;52.600;7.318;2023-07-29T11:55:21;26;26;
47810;PMS5003;33575;52.600;7.318;2023-07-29T11:57:52;21;21;
47810;PMS5003;33575;52.600;7.318;2023-07-29T12:00:22;9;9;
47810;PMS5003;33575;52.600;7.318;2023-07-29T12:02:52;11;11;
47810;PMS5003;33575;52.600;7.318;2023-07-29T12:05:22;14;12;
47810;PMS5003;33575;52.600;7.318;2023-07-29T12:07:52;11;11;
47810;PMS5003;33575;52.600;7.318;2023-07-29T12:10:23;11;11;
47810;PMS5003;33575;52.600;7.318;2023-07-29T12:12:53;14;14;
47810;PMS5003;33575;52.600;7.318;2023-07-29T12:15:23;14;14;
47810;PMS5003;33575;52.600;7.318;2023-07-29T12:17:54;15;15;
47810;PMS5003;33575;52.600;7.318;2023-07-29T12:20:24;12;12;
47810;PMS5003;33575;52.600;7.318;2023-07-29T12:22:55;13;13;
47810;PMS5003;33575;52.600;7.318;2023-07-29T12:25:25;23;23;
47810;PMS5003;33575;52.600;7.318;2023-07-29T12:27:55;16;16;
47810;PMS5003;33575;52.600;7.318;2023-07-29T12:30:25;18;17;
47810;PMS5003;33575;52.600;7.318;2023-07-29T12:32:56;7;7;
47810;PMS5003;33575;52.600;7.318;2023-07-29T12:37:59;11;11;
47810;PMS5003;33575;52.600;7.318;2023-07-29T12:40:26;11;11;
47810;PMS5003;33575;52.600;7.318;2023-07-29T12:42:56;11;11;
47810;PMS5003;33575;52.600;7.318;2023-07-29T12:45:27;11;11;
47810;PMS5003;33575;52.600;7.318;2023-07-29T12:47:57;10;9;
47810;PMS5003;33575;52.600;7.318;2023-07-29T12:50:27;10;10;
47810;PMS5003;33575;52.600;7.318;2023-07-29T12:52:57;11;10;
47810;PMS5003;33575;52.600;7.318;2023-07-29T12:55:27;9;9;
47810;PMS5003;33575;52.600;7.318;2023-07-29T12:57:57;10;9;
47810;PMS5003;33575;52.600;7.318;2023-07-29T13:00:28;9;9;
47810;PMS5003;33575;52.600;7.318;2023-07-29T13:02:58;10;9;
47810;PMS5003;33575;52.600;7.318;2023-07-29T13:05:28;9;9;
47810;PMS5003;33575;52.600;7.318;2023-07-29T13:07:58;8;8;
47810;PMS5003;33575;52.600;7.318;2023-07-29T13:10:28;9;9;
47810;PMS5003;33575;52.600;7.318;2023-07-29T13:12:59;11;11;
47810;PMS5003;33575;52.600;7.318;2023-07-29T13:15:29;10;9;
47810;PMS5003;33575;52.600;7.318;2023-07-29T13:17:59;14;12;
47810;PMS5003;33575;52.600;7.318;2023-07-29T13:20:29;10;10;
47810;PMS5003;33575;52.600;7.318;2023-07-29T13:22:59;9;9;
47810;PMS5003;33575;52.600;7.318;2023-07-29T13:25:29;7;7;
47810;PMS5003;33575;52.600;7.318;2023-07-29T13:28:00;9;9;
47810;PMS5003;33575;52.600;7.318;2023-07-29T13:30:30;10;9;
47810;PMS5003;33575;52.600;7.318;2023-07-29T13:33:00;9;9;
47810;PMS5003;33575;52.600;7.318;2023-07-29T13:35:30;10;9;
47810;PMS5003;33575;52.600;7.318;2023-07-29T13:38:00;7;7;
47810;PMS5003;33575;52.600;7.318;2023-07-29T13:40:30;7;7;
47810;PMS5003;33575;52.600;7.318;2023-07-29T13:43:01;7;6;
47810;PMS5003;33575;52.600;7.318;2023-07-29T13:45:31;8;8;
47810;PMS5003;33575;52.600;7.318;2023-07-29T13:48:01;6;6;
47810;PMS5003;33575;52.600;7.318;2023-07-29T13:50:31;8;7;
47810;PMS5003;33575;52.600;7.318;2023-07-29T13:53:01;7;7;
47810;PMS5003;33575;52.600;7.318;2023-07-29T13:55:32;7;7;
47810;PMS5003;33575;52.600;7.318;2023-07-29T13:58:02;6;6;
47810;PMS5003;33575;52.600;7.318;2023-07-29T14:00:32;9;8;
47810;PMS5003;33575;52.600;7.318;2023-07-29T14:03:02;10;10;
47810;PMS5003;33575;52.600;7.318;2023-07-29T14:05:32;7;7;
47810;PMS5003;33575;52.600;7.318;2023-07-29T14:08:03;7;7;
47810;PMS5003;33575;52.600;7.318;2023-07-29T14:10:33;7;6;
47810;PMS5003;33575;52.600;7.318;2023-07-29T14:13:03;9;8;
47810;PMS5003;33575;52.600;7.318;2023-07-29T14:15:33;10;8;
47810;PMS5003;33575;52.600;7.318;2023-07-29T14:18:03;9;9;
47810;PMS5003;33575;52.600;7.318;2023-07-29T14:20:33;7;7;
47810;PMS5003;33575;52.600;7.318;2023-07-29T14:23:03;8;7;
47810;PMS5003;33575;52.600;7.318;2023-07-29T14:25:34;7;7;
47810;PMS5003;33575;52.600;7.318;2023-07-29T14:28:04;7;7;
47810;PMS5003;33575;52.600;7.318;2023-07-29T14:30:35;7;7;
47810;PMS5003;33575;52.600;7.318;2023-07-29T14:33:05;7;7;
47810;PMS5003;33575;52.600;7.318;2023-07-29T14:35:35;7;7;
47810;PMS5003;33575;52.600;7.318;2023-07-29T14:38:05;8;8;
47810;PMS5003;33575;52.600;7.318;2023-07-29T14:40:35;8;7;
47810;PMS5003;33575;52.600;7.318;2023-07-29T14:43:05;9;8;
47810;PMS5003;33575;52.600;7.318;2023-07-29T14:45:36;7;6;
47810;PMS5003;33575;52.600;7.318;2023-07-29T14:48:06;7;7;
47810;PMS5003;33575;52.600;7.318;2023-07-29T14:50:36;6;6;
47810;PMS5003;33575;52.600;7.318;2023-07-29T14:53:06;5;5;
47810;PMS5003;33575;52.600;7.318;2023-07-29T14:55:36;5;5;
47810;PMS5003;33575;52.600;7.318;2023-07-29T14:58:07;7;7;
47810;PMS5003;33575;52.600;7.318;2023-07-29T15:00:37;7;7;
47810;PMS5003;33575;52.600;7.318;2023-07-29T15:03:07;4;3;
47810;PMS5003;33575;52.600;7.318;2023-07-29T15:05:37;7;6;
47810;PMS5003;33575;52.600;7.318;2023-07-29T15:08:07;4;4;
47810;PMS5003;33575;52.600;7.318;2023-07-29T15:10:37;4;4;
47810;PMS5003;33575;52.600;7.318;2023-07-29T15:13:08;5;4;
47810;PMS5003;33575;52.600;7.318;2023-07-29T15:15:40;3;3;
47810;PMS5003;33575;52.600;7.318;2023-07-29T15:18:08;3;3;
47810;PMS5003;33575;52.600;7.318;2023-07-29T15:20:38;2;2;
47810;PMS5003;33575;52.600;7.318;2023-07-29T15:23:08;2;2;
47810;PMS5003;33575;52.600;7.318;2023-07-29T15:25:38;2;2;
47810;PMS5003;33575;52.600;7.318;2023-07-29T15:28:08;2;2;
47810;PMS5003;33575;52.600;7.318;2023-07-29T15:30:40;2;1;
47810;PMS5003;33575;52.600;7.318;2023-07-29T15:33:09;2;2;
47810;PMS5003;33575;52.600;7.318;2023-07-29T15:35:39;1;1;
47810;PMS5003;33575;52.600;7.318;2023-07-29T15:38:09;3;3;
47810;PMS5003;33575;52.600;7.318;2023-07-29T15:40:39;2;2;
47810;PMS5003;33575;52.600;7.318;2023-07-29T15:43:09;3;3;
47810;PMS5003;33575;52.600;7.318;2023-07-29T15:45:39;1;1;
47810;PMS5003;33575;52.600;7.318;2023-07-29T15:48:10;3;3;
47810;PMS5003;33575;52.600;7.318;2023-07-29T15:50:40;3;2;
47810;PMS5003;33575;52.600;7.318;2023-07-29T15:53:10;3;3;
47810;PMS5003;33575;52.600;7.318;2023-07-29T15:55:40;3;3;
47810;PMS5003;33575;52.600;7.318;2023-07-29T15:58:10;2;2;
47810;PMS5003;33575;52.600;7.318;2023-07-29T16:00:40;3;3;
47810;PMS5003;33575;52.600;7.318;2023-07-29T16:03:11;3;2;
47810;PMS5003;33575;52.600;7.318;2023-07-29T16:05:41;3;3;
47810;PMS5003;33575;52.600;7.318;2023-07-29T16:08:11;3;3;
47810;PMS5003;33575;52.600;7.318;2023-07-29T16:10:41;4;4;
47810;PMS5003;33575;52.600;7.318;2023-07-29T16:13:11;2;2;
47810;PMS5003;33575;52.600;7.318;2023-07-29T16:15:41;4;4;
47810;PMS5003;33575;52.600;7.318;2023-07-29T16:18:12;5;4;
47810;PMS5003;33575;52.600;7.318;2023-07-29T16:20:42;3;3;
47810;PMS5003;33575;52.600;7.318;2023-07-29T16:23:12;5;5;
47810;PMS5003;33575;52.600;7.318;2023-07-29T16:25:42;3;3;
47810;PMS5003;33575;52.600;7.318;2023-07-29T16:28:12;4;4;
47810;PMS5003;33575;52.600;7.318;2023-07-29T16:30:43;4;4;
47810;PMS5003;33575;52.600;7.318;2023-07-29T16:33:13;4;3;
47810;PMS5003;33575;52.600;7.318;2023-07-29T16:35:43;4;4;
47810;PMS5003;33575;52.600;7.318;2023-07-29T16:38:13;4;4;
47810;PMS5003;33575;52.600;7.318;2023-07-29T16:40:48;3;3;
47810;PMS5003;33575;52.600;7.318;2023-07-29T16:43:13;4;4;
47810;PMS5003;33575;52.600;7.318;2023-07-29T16:45:44;4;4;
47810;PMS5003;33575;52.600;7.318;2023-07-29T16:48:14;3;3;
47810;PMS5003;33575;52.600;7.318;2023-07-29T16:50:44;5;5;
47810;PMS5003;33575;52.600;7.318;2023-07-29T16:53:14;3;3;